createdAt,value
2018-04-14T00:02:26.215Z,3.59
2018-04-14T00:04:54.474Z,3.51
2018-04-14T00:07:23.504Z,3.50
2018-04-14T00:09:51.747Z,3.42
2018-04-14T00:12:20.009Z,3.54
2018-04-14T00:14:48.250Z,3.40
2018-04-14T00:17:16.514Z,3.27
2018-04-14T00:19:44.766Z,3.20
2018-04-14T00:22:13.043Z,3.18
2018-04-14T00:24:41.302Z,3.19
2018-04-14T00:27:09.549Z,3.06
2018-04-14T00:29:37.819Z,3.04
2018-04-14T00:32:06.062Z,3.18
2018-04-14T00:34:34.338Z,3.01
2018-04-14T00:37:02.603Z,2.97
2018-04-14T00:39:30.855Z,2.99
2018-04-14T00:41:59.143Z,3.02
2018-04-14T00:44:27.399Z,2.99
2018-04-14T00:46:56.415Z,2.99
2018-04-14T00:49:24.779Z,2.94
2018-04-14T00:51:53.048Z,2.94
2018-04-14T00:54:22.066Z,3.05
2018-04-14T00:56:50.315Z,3.04
2018-04-14T00:59:19.333Z,2.85
2018-04-14T01:01:48.355Z,2.83
2018-04-14T01:04:16.615Z,2.72
2018-04-14T01:06:44.880Z,2.96
2018-04-14T01:09:13.903Z,2.81
2018-04-14T01:11:42.166Z,2.59
2018-04-14T01:14:11.196Z,2.74
2018-04-14T01:16:39.450Z,2.57
2018-04-14T01:19:08.474Z,2.50
2018-04-14T01:21:36.722Z,2.43
2018-04-14T01:24:05.756Z,2.44
2018-04-14T01:26:34.014Z,2.40
2018-04-14T01:29:02.274Z,2.37
2018-04-14T01:31:31.289Z,2.38
2018-04-14T01:33:59.554Z,2.38
2018-04-14T01:36:28.554Z,2.38
2018-04-14T01:38:57.583Z,2.44
2018-04-14T01:41:25.835Z,2.40
2018-04-14T01:43:54.850Z,2.33
2018-04-14T01:46:23.318Z,2.35
2018-04-14T01:48:51.579Z,2.36
2018-04-14T01:51:19.823Z,2.26
2018-04-14T01:53:49.336Z,2.31
2018-04-14T01:56:17.586Z,2.39
2018-04-14T01:58:45.856Z,2.24
2018-04-14T02:01:14.103Z,2.14
2018-04-14T02:03:42.351Z,2.05
2018-04-14T02:06:10.616Z,2.01
2018-04-14T02:08:38.859Z,1.97
2018-04-14T02:11:07.887Z,1.93
2018-04-14T02:13:36.148Z,1.80
2018-04-14T02:16:06.424Z,1.76
2018-04-14T02:18:34.687Z,1.72
2018-04-14T02:21:02.972Z,1.74
2018-04-14T02:23:31.227Z,1.77
2018-04-14T02:25:59.488Z,1.71
2018-04-14T02:28:28.504Z,1.70
2018-04-14T02:30:56.766Z,1.73
2018-04-14T02:33:25.789Z,1.74
2018-04-14T02:35:54.050Z,1.77
2018-04-14T02:38:23.065Z,1.72
2018-04-14T02:40:51.327Z,1.65
2018-04-14T02:43:20.356Z,1.61
2018-04-14T02:45:48.610Z,1.60
2018-04-14T02:48:16.878Z,1.69
2018-04-14T02:50:45.887Z,1.65
2018-04-14T02:53:14.157Z,1.58
2018-04-14T02:55:43.172Z,1.59
2018-04-14T02:58:11.446Z,1.70
2018-04-14T03:00:40.458Z,1.50
2018-04-14T03:03:08.712Z,1.44
2018-04-14T03:05:37.718Z,1.41
2018-04-14T03:08:06.757Z,1.43
2018-04-14T03:10:35.015Z,1.44
2018-04-14T03:13:03.275Z,1.42
2018-04-14T03:15:32.298Z,1.37
2018-04-14T03:18:00.555Z,1.41
2018-04-14T03:20:29.572Z,1.39
2018-04-14T03:22:57.826Z,1.40
2018-04-14T03:25:26.852Z,1.39
2018-04-14T03:27:55.110Z,1.49
2018-04-14T03:30:24.120Z,1.51
2018-04-14T03:32:52.380Z,1.58
2018-04-14T03:35:21.399Z,1.59
2018-04-14T03:37:49.644Z,1.61
2018-04-14T03:40:17.914Z,1.51
2018-04-14T03:42:46.158Z,1.50
2018-04-14T03:45:14.423Z,1.48
2018-04-14T03:47:42.676Z,1.42
2018-04-14T03:50:11.704Z,1.38
2018-04-14T03:52:39.950Z,1.41
2018-04-14T03:55:08.975Z,1.29
2018-04-14T03:57:37.219Z,1.29
2018-04-14T04:00:05.474Z,1.22
2018-04-14T04:02:34.483Z,1.23
2018-04-14T04:05:02.756Z,1.19
2018-04-14T04:07:30.994Z,1.14
2018-04-14T04:09:59.263Z,1.17
2018-04-14T04:12:28.771Z,1.13
2018-04-14T04:14:57.795Z,1.14
2018-04-14T04:17:26.098Z,1.19
2018-04-14T04:20:12.243Z,1.18
2018-04-14T04:22:58.507Z,1.18
2018-04-14T04:25:41.672Z,1.13
2018-04-14T04:28:09.983Z,1.31
2018-04-14T04:30:40.259Z,1.13
2018-04-14T04:33:08.543Z,1.14
2018-04-14T04:35:37.574Z,1.12
2018-04-14T04:38:06.523Z,1.14
2018-04-14T04:40:35.548Z,1.24
2018-04-14T04:43:03.802Z,1.28
2018-04-14T04:45:32.823Z,1.20
2018-04-14T04:48:01.087Z,1.20
2018-04-14T04:50:30.110Z,1.23
2018-04-14T04:52:58.379Z,1.29
2018-04-14T04:55:26.640Z,1.46
2018-04-14T04:57:55.652Z,1.53
2018-04-14T05:00:23.924Z,1.51
2018-04-14T05:02:52.946Z,1.61
2018-04-14T05:05:21.194Z,1.65
2018-04-14T05:07:50.411Z,1.73
2018-04-14T05:10:19.503Z,1.87
2018-04-14T05:12:48.547Z,2.01
2018-04-14T05:15:17.527Z,2.16
2018-04-14T05:17:45.793Z,2.29
2018-04-14T05:20:14.035Z,2.35
2018-04-14T05:22:42.315Z,2.42
2018-04-14T05:25:10.594Z,2.49
2018-04-14T05:27:38.852Z,2.58
2018-04-14T05:30:07.103Z,2.65
2018-04-14T05:32:35.462Z,2.77
2018-04-14T05:35:04.473Z,3.28
2018-04-14T05:37:32.977Z,7.27
2018-04-14T05:40:01.219Z,11.33
2018-04-14T05:42:30.328Z,13.95
2018-04-14T05:45:00.670Z,15.12
2018-04-14T05:47:28.939Z,16.50
2018-04-14T05:49:57.943Z,16.63
2018-04-14T05:52:26.195Z,19.22
2018-04-14T05:54:54.442Z,18.53
2018-04-14T05:57:22.695Z,20.60
2018-04-14T05:59:50.951Z,20.11
2018-04-14T06:02:19.969Z,22.06
2018-04-14T06:04:48.234Z,21.34
2018-04-14T06:07:16.485Z,21.54
2018-04-14T06:09:45.510Z,21.79
2018-04-14T06:12:13.775Z,21.14
2018-04-14T06:14:42.036Z,22.54
2018-04-14T06:17:10.284Z,23.00
2018-04-14T06:19:38.552Z,21.70
2018-04-14T06:22:06.826Z,23.66
2018-04-14T06:24:35.824Z,22.58
2018-04-14T06:27:04.090Z,23.52
2018-04-14T06:29:32.361Z,25.07
2018-04-14T06:32:01.372Z,24.25
2018-04-14T06:34:29.638Z,24.35
2018-04-14T06:36:59.890Z,24.57
2018-04-14T06:39:28.150Z,25.01
2018-04-14T06:41:57.171Z,23.29
2018-04-14T06:44:25.550Z,23.14
2018-04-14T06:46:53.794Z,22.34
2018-04-14T06:49:22.043Z,22.10
2018-04-14T06:51:50.319Z,23.23
2018-04-14T06:54:18.564Z,22.48
2018-04-14T06:56:46.822Z,23.06
2018-04-14T06:59:16.764Z,24.45
2018-04-14T07:01:45.025Z,25.20
2018-04-14T07:04:14.037Z,28.02
2018-04-14T07:06:42.306Z,28.45
2018-04-14T07:09:11.325Z,28.58
2018-04-14T07:11:39.607Z,29.33
2018-04-14T07:14:07.851Z,28.55
2018-04-14T07:16:36.111Z,27.47
2018-04-14T07:19:05.559Z,25.71
2018-04-14T07:21:33.826Z,26.79
2018-04-14T07:24:02.842Z,27.48
2018-04-14T07:26:31.111Z,26.55
2018-04-14T07:29:00.131Z,27.68
2018-04-14T07:31:28.396Z,26.65
2018-04-14T07:33:57.499Z,27.11
2018-04-14T07:36:25.762Z,27.45
2018-04-14T07:38:54.788Z,26.90
2018-04-14T07:41:23.056Z,27.06
2018-04-14T07:43:52.080Z,27.16
2018-04-14T07:46:20.348Z,27.17
2018-04-14T07:48:48.616Z,28.99
2018-04-14T07:51:16.885Z,27.89
2018-04-14T07:53:45.908Z,27.73
2018-04-14T07:56:14.174Z,27.42
2018-04-14T07:58:42.423Z,28.49
2018-04-14T08:01:11.091Z,29.70
2018-04-14T08:03:39.351Z,28.01
2018-04-14T08:06:07.618Z,25.75
2018-04-14T08:08:35.872Z,26.17
2018-04-14T08:11:05.044Z,27.84
2018-04-14T08:13:33.291Z,29.06
2018-04-14T08:16:01.545Z,30.56
2018-04-14T08:18:29.811Z,30.76
2018-04-14T08:20:59.139Z,31.99
2018-04-14T08:23:27.420Z,28.01
2018-04-14T08:25:55.790Z,28.21
2018-04-14T08:28:24.047Z,30.02
2018-04-14T08:30:52.305Z,29.80
2018-04-14T08:33:20.568Z,29.25
2018-04-14T08:35:48.813Z,28.50
2018-04-14T08:38:17.078Z,27.78
2018-04-14T08:40:46.107Z,28.59
2018-04-14T08:43:14.379Z,28.87
2018-04-14T08:45:43.383Z,28.19
2018-04-14T08:48:11.634Z,27.75
2018-04-14T08:50:40.661Z,27.85
2018-04-14T08:53:08.924Z,28.27
2018-04-14T08:55:37.178Z,27.83
2018-04-14T08:58:05.454Z,28.60
2018-04-14T09:00:33.703Z,30.63
2018-04-14T09:03:02.724Z,29.62
2018-04-14T09:05:30.988Z,30.20
2018-04-14T09:07:59.236Z,30.21
2018-04-14T09:10:27.502Z,28.74
2018-04-14T09:12:55.911Z,30.61
2018-04-14T09:15:24.186Z,31.61
2018-04-14T09:17:52.429Z,30.19
2018-04-14T09:20:20.682Z,30.09
2018-04-14T09:22:48.947Z,30.21
2018-04-14T09:25:17.214Z,28.38
2018-04-14T09:27:45.466Z,29.99
2018-04-14T09:30:14.487Z,30.35
2018-04-14T09:32:42.734Z,27.90
2018-04-14T09:35:11.769Z,27.71
2018-04-14T09:37:40.012Z,30.04
2018-04-14T09:40:09.052Z,28.75
2018-04-14T09:42:37.310Z,28.85
2018-04-14T09:45:05.572Z,30.39
2018-04-14T09:47:34.594Z,29.51
2018-04-14T09:50:02.860Z,27.72
2018-04-14T09:52:31.875Z,28.12
2018-04-14T09:55:00.134Z,28.93
2018-04-14T09:57:29.154Z,29.80
2018-04-14T09:59:57.419Z,28.09
2018-04-14T10:02:26.450Z,27.56
2018-04-14T10:04:54.700Z,26.71
2018-04-14T10:07:22.983Z,30.13
2018-04-14T10:09:51.993Z,29.17
2018-04-14T10:12:20.262Z,29.79
2018-04-14T10:14:49.295Z,29.76
2018-04-14T10:17:17.582Z,28.04
2018-04-14T10:19:45.807Z,28.20
2018-04-14T10:22:14.840Z,28.75
2018-04-14T10:24:43.087Z,28.65
2018-04-14T10:27:12.124Z,27.26
2018-04-14T10:29:40.375Z,28.54
2018-04-14T10:32:08.639Z,26.99
2018-04-14T10:34:37.665Z,28.19
2018-04-14T10:37:06.018Z,26.62
2018-04-14T10:39:35.040Z,26.43
2018-04-14T10:42:03.312Z,25.76
2018-04-14T10:44:31.570Z,28.24
2018-04-14T10:47:01.077Z,31.01
2018-04-14T10:49:29.341Z,28.56
2018-04-14T10:51:57.589Z,29.60
2018-04-14T10:54:27.870Z,27.85
2018-04-14T10:56:56.127Z,31.27
2018-04-14T10:59:24.392Z,27.66
2018-04-14T11:01:52.659Z,26.87
2018-04-14T11:04:20.913Z,27.31
2018-04-14T11:06:49.163Z,28.20
2018-04-14T11:09:17.449Z,26.56
2018-04-14T11:11:45.710Z,25.37
2018-04-14T11:14:13.988Z,26.40
2018-04-14T11:16:42.254Z,28.55
2018-04-14T11:19:10.522Z,27.27
2018-04-14T11:21:38.791Z,27.40
2018-04-14T11:24:07.055Z,28.14
2018-04-14T11:26:35.311Z,27.36
2018-04-14T11:29:03.588Z,27.23
2018-04-14T11:31:31.843Z,25.51
2018-04-14T11:34:00.091Z,25.78
2018-04-14T11:36:29.190Z,29.47
2018-04-14T11:38:58.122Z,28.22
2018-04-14T11:41:26.375Z,28.15
2018-04-14T11:43:54.647Z,28.89
2018-04-14T11:46:22.906Z,28.40
2018-04-14T11:48:51.924Z,27.74
2018-04-14T11:51:20.191Z,27.57
2018-04-14T11:53:48.443Z,26.46
2018-04-14T11:56:16.711Z,25.83
2018-04-14T11:58:45.068Z,25.87
2018-04-14T12:01:13.343Z,27.18
2018-04-14T12:03:41.653Z,27.58
2018-04-14T12:06:09.871Z,27.90
2018-04-14T12:08:38.897Z,27.86
2018-04-14T12:11:07.163Z,27.74
2018-04-14T12:13:35.411Z,29.94
2018-04-14T12:16:04.445Z,28.63
2018-04-14T12:18:32.696Z,27.81
2018-04-14T12:21:01.721Z,28.55
2018-04-14T12:23:29.973Z,28.85
2018-04-14T12:25:59.139Z,26.00
2018-04-14T12:28:27.447Z,27.58
2018-04-14T12:30:55.647Z,24.28
2018-04-14T12:33:24.679Z,25.41
2018-04-14T12:35:52.941Z,26.08
2018-04-14T12:38:21.214Z,24.67
2018-04-14T12:40:49.481Z,24.21
2018-04-14T12:43:18.496Z,24.40
2018-04-14T12:45:46.759Z,22.97
2018-04-14T12:48:15.783Z,24.69
2018-04-14T12:50:44.026Z,25.33
2018-04-14T12:53:13.051Z,25.80
2018-04-14T12:55:41.317Z,25.26
2018-04-14T12:58:10.349Z,22.57
2018-04-14T13:00:38.599Z,22.33
2018-04-14T13:03:07.615Z,22.05
2018-04-14T13:05:35.999Z,22.22
2018-04-14T13:08:04.267Z,22.19
2018-04-14T13:10:32.575Z,21.84
2018-04-14T13:13:00.840Z,21.52
2018-04-14T13:15:29.120Z,21.45
2018-04-14T13:17:57.376Z,21.65
2018-04-14T13:20:26.387Z,21.44
2018-04-14T13:22:54.658Z,21.66
2018-04-14T13:25:23.696Z,21.25
2018-04-14T13:27:51.961Z,21.04
2018-04-14T13:30:20.330Z,20.67
2018-04-14T13:32:48.915Z,20.91
2018-04-14T13:35:17.153Z,21.27
2018-04-14T13:37:45.407Z,21.79
2018-04-14T13:40:13.669Z,21.53
2018-04-14T13:42:41.924Z,21.25
2018-04-14T13:45:10.953Z,20.93
2018-04-14T13:47:39.216Z,20.80
2018-04-14T13:50:07.491Z,20.49
2018-04-14T13:52:37.768Z,20.87
2018-04-14T13:55:06.023Z,21.28
2018-04-14T13:57:34.290Z,21.21
2018-04-14T14:00:02.544Z,21.06
2018-04-14T14:02:31.562Z,20.72
2018-04-14T14:04:59.827Z,21.06
2018-04-14T14:07:28.848Z,21.32
2018-04-14T14:09:57.099Z,21.14
2018-04-14T14:12:26.135Z,20.97
2018-04-14T14:14:54.394Z,21.06
2018-04-14T14:17:22.665Z,21.22
2018-04-14T14:19:51.687Z,20.38
2018-04-14T14:22:19.943Z,20.69
2018-04-14T14:24:48.967Z,20.47
2018-04-14T14:27:17.219Z,20.90
2018-04-14T14:29:46.241Z,20.74
2018-04-14T14:32:14.493Z,20.35
2018-04-14T14:34:43.318Z,20.53
2018-04-14T14:37:11.572Z,20.30
2018-04-14T14:39:40.606Z,19.97
2018-04-14T14:42:08.859Z,20.28
2018-04-14T14:44:37.263Z,20.41
2018-04-14T14:47:05.523Z,20.49
2018-04-14T14:49:34.547Z,20.41
2018-04-14T14:52:02.799Z,20.49
2018-04-14T14:54:31.828Z,20.41
2018-04-14T14:57:00.075Z,20.47
2018-04-14T14:59:29.107Z,20.70
2018-04-14T15:01:57.355Z,20.78
2018-04-14T15:04:25.654Z,20.62
2018-04-14T15:06:54.567Z,20.56
2018-04-14T15:09:22.837Z,20.21
2018-04-14T15:11:51.095Z,19.62
2018-04-14T15:14:19.358Z,19.68
2018-04-14T15:16:47.990Z,19.76
2018-04-14T15:19:16.243Z,19.71
2018-04-14T15:21:45.260Z,19.70
2018-04-14T15:24:13.533Z,19.63
2018-04-14T15:26:41.779Z,19.74
2018-04-14T15:29:10.026Z,19.79
2018-04-14T15:31:38.404Z,19.71
2018-04-14T15:34:06.653Z,19.58
2018-04-14T15:36:34.907Z,19.67
2018-04-14T15:39:03.935Z,19.79
2018-04-14T15:41:32.188Z,19.72
2018-04-14T15:44:01.212Z,19.51
2018-04-14T15:46:29.479Z,19.44
2018-04-14T15:48:57.897Z,19.31
2018-04-14T15:51:26.142Z,19.23
2018-04-14T15:53:54.395Z,19.26
2018-04-14T15:56:22.659Z,19.31
2018-04-14T15:58:50.918Z,19.23
2018-04-14T16:01:19.183Z,19.24
2018-04-14T16:03:47.493Z,19.24
2018-04-14T16:06:16.467Z,19.16
2018-04-14T16:08:44.719Z,19.01
2018-04-14T16:11:13.795Z,19.00
2018-04-14T16:13:42.000Z,19.00
2018-04-14T16:16:10.262Z,18.95
2018-04-14T16:18:40.530Z,18.68
2018-04-14T16:21:08.784Z,18.56
2018-04-14T16:23:37.865Z,18.40
2018-04-14T16:26:06.076Z,18.20
2018-04-14T16:28:34.344Z,18.21
2018-04-14T16:31:03.360Z,18.33
2018-04-14T16:33:31.622Z,18.19
2018-04-14T16:36:00.723Z,17.90
2018-04-14T16:38:29.869Z,17.69
2018-04-14T16:40:58.121Z,17.65
2018-04-14T16:43:26.363Z,17.46
2018-04-14T16:45:54.623Z,17.27
2018-04-14T16:48:22.896Z,17.19
2018-04-14T16:50:51.156Z,17.20
2018-04-14T16:53:19.416Z,17.33
2018-04-14T16:55:47.804Z,17.10
2018-04-14T16:58:16.060Z,17.05
2018-04-14T17:00:45.083Z,17.04
2018-04-14T17:03:13.333Z,16.95
2018-04-14T17:05:42.495Z,16.83
2018-04-14T17:08:10.746Z,16.72
2018-04-14T17:10:39.000Z,16.58
2018-04-14T17:13:08.027Z,16.65
2018-04-14T17:15:36.286Z,16.48
2018-04-14T17:18:04.535Z,16.35
2018-04-14T17:20:32.798Z,16.22
2018-04-14T17:23:01.052Z,16.12
2018-04-14T17:25:29.314Z,16.07
2018-04-14T17:27:57.569Z,15.96
2018-04-14T17:30:25.831Z,15.91
2018-04-14T17:32:54.087Z,15.79
2018-04-14T17:35:22.430Z,15.63
2018-04-14T17:37:51.450Z,15.44
2018-04-14T17:40:19.713Z,15.38
2018-04-14T17:42:47.965Z,15.42
2018-04-14T17:45:16.231Z,15.29
2018-04-14T17:47:44.480Z,15.14
2018-04-14T17:50:12.750Z,15.16
2018-04-14T17:52:41.016Z,14.97
2018-04-14T17:55:09.264Z,14.83
2018-04-14T17:57:37.527Z,14.73
2018-04-14T18:00:05.789Z,14.76
2018-04-14T18:02:34.059Z,14.60
2018-04-14T18:05:02.289Z,14.50
2018-04-14T18:07:30.543Z,14.45
2018-04-14T18:09:58.796Z,14.37
2018-04-14T18:12:27.068Z,14.23
2018-04-14T18:14:55.318Z,14.08
2018-04-14T18:17:24.407Z,13.88
2018-04-14T18:19:52.599Z,13.60
2018-04-14T18:22:21.624Z,13.57
2018-04-14T18:24:50.831Z,13.45
2018-04-14T18:27:19.092Z,13.30
2018-04-14T18:29:48.123Z,13.14
2018-04-14T18:32:16.370Z,13.11
2018-04-14T18:34:45.279Z,13.06
2018-04-14T18:37:13.534Z,13.00
2018-04-14T18:39:42.545Z,12.92
2018-04-14T18:42:10.910Z,12.75
2018-04-14T18:44:39.937Z,12.61
2018-04-14T18:47:08.178Z,12.58
2018-04-14T18:49:36.443Z,12.51
2018-04-14T18:52:04.702Z,12.43
2018-04-14T18:54:32.959Z,12.42
2018-04-14T18:57:01.244Z,12.31
2018-04-14T18:59:29.514Z,12.26
2018-04-14T19:01:57.760Z,12.26
2018-04-14T19:04:26.018Z,12.08
2018-04-14T19:06:54.281Z,12.00
2018-04-14T19:09:22.542Z,11.99
2018-04-14T19:11:50.800Z,11.84
2018-04-14T19:14:19.824Z,11.90
2018-04-14T19:16:49.049Z,11.70
2018-04-14T19:19:17.303Z,11.93
2018-04-14T19:21:45.581Z,11.68
2018-04-14T19:24:13.844Z,11.68
2018-04-14T19:26:42.856Z,11.64
2018-04-14T19:29:11.121Z,11.60
2018-04-14T19:31:40.224Z,11.40
2018-04-14T19:34:08.502Z,11.28
2018-04-14T19:36:37.607Z,11.12
2018-04-14T19:39:06.567Z,10.94
2018-04-14T19:41:34.824Z,10.83
2018-04-14T19:44:03.091Z,10.70
2018-04-14T19:46:32.104Z,10.57
2018-04-14T19:49:00.366Z,10.47
2018-04-14T19:51:28.610Z,10.38
2018-04-14T19:53:57.636Z,10.29
2018-04-14T19:56:25.945Z,10.24
2018-04-14T19:58:54.903Z,10.15
2018-04-14T20:01:23.166Z,10.13
2018-04-14T20:03:52.189Z,10.07
2018-04-14T20:06:20.456Z,10.00
2018-04-14T20:08:49.161Z,9.93
2018-04-14T20:11:17.423Z,9.84
2018-04-14T20:13:46.431Z,9.75
2018-04-14T20:16:14.693Z,9.73
2018-04-14T20:18:43.702Z,9.54
2018-04-14T20:21:11.950Z,9.42
2018-04-14T20:23:40.195Z,9.32
2018-04-14T20:26:08.453Z,9.24
2018-04-14T20:28:36.692Z,9.19
2018-04-14T20:31:04.951Z,9.16
2018-04-14T20:33:33.183Z,9.08
2018-04-14T20:36:01.435Z,9.04
2018-04-14T20:38:29.687Z,8.96
2018-04-14T20:40:58.569Z,8.89
2018-04-14T20:43:27.526Z,8.79
2018-04-14T20:45:56.554Z,8.73
2018-04-14T20:48:24.800Z,8.66
2018-04-14T20:50:53.822Z,8.69
2018-04-14T20:53:22.071Z,8.63
2018-04-14T20:55:51.082Z,8.56
2018-04-14T20:58:20.106Z,8.49
2018-04-14T21:00:48.346Z,8.41
2018-04-14T21:03:17.376Z,8.30
2018-04-14T21:05:45.661Z,8.16
2018-04-14T21:08:13.910Z,8.06
2018-04-14T21:10:42.914Z,7.97
2018-04-14T21:13:12.529Z,7.91
2018-04-14T21:15:40.784Z,7.86
2018-04-14T21:18:09.035Z,7.77
2018-04-14T21:20:37.286Z,7.69
2018-04-14T21:23:05.545Z,7.56
2018-04-14T21:25:34.575Z,7.48
2018-04-14T21:28:02.822Z,7.46
2018-04-14T21:30:31.944Z,7.44
2018-04-14T21:33:00.203Z,7.34
2018-04-14T21:35:29.210Z,7.29
2018-04-14T21:37:57.471Z,7.26
2018-04-14T21:40:26.482Z,7.21
2018-04-14T21:42:55.495Z,7.12
2018-04-14T21:45:23.734Z,7.04
2018-04-14T21:47:52.018Z,6.97
2018-04-14T21:50:20.267Z,6.89
2018-04-14T21:52:48.523Z,6.83
2018-04-14T21:55:18.435Z,6.74
2018-04-14T22:00:21.947Z,6.71
2018-04-14T22:02:50.210Z,6.73
2018-04-14T22:05:19.323Z,6.89
2018-04-14T22:07:47.558Z,6.78
2018-04-14T22:10:15.815Z,6.57
2018-04-14T22:12:44.070Z,6.35
2018-04-14T22:15:13.087Z,6.31
2018-04-14T22:17:41.322Z,6.28
2018-04-14T22:20:10.674Z,6.31
2018-04-14T22:22:39.027Z,6.25
2018-04-14T22:25:08.043Z,6.23
2018-04-14T22:27:36.282Z,6.18
2018-04-14T22:30:04.592Z,6.38
2018-04-14T22:32:32.836Z,6.12
2018-04-14T22:35:02.596Z,6.02
2018-04-14T22:37:30.831Z,5.94
2018-04-14T22:39:59.138Z,5.93
2018-04-14T22:42:27.379Z,6.05
2018-04-14T22:44:56.627Z,6.12
2018-04-14T22:47:24.877Z,6.03
2018-04-14T22:49:53.136Z,6.04
2018-04-14T22:52:21.464Z,6.02
2018-04-14T22:54:50.802Z,6.16
2018-04-14T22:57:19.051Z,6.00
2018-04-14T22:59:48.067Z,5.81
2018-04-14T23:02:16.313Z,5.77
2018-04-14T23:04:45.336Z,5.70
2018-04-14T23:07:13.570Z,5.64
2018-04-14T23:09:41.823Z,5.61
2018-04-14T23:12:10.078Z,5.60
2018-04-14T23:14:38.319Z,5.53
2018-04-14T23:17:06.576Z,5.49
2018-04-14T23:19:34.824Z,5.43
2018-04-14T23:22:03.084Z,5.37
2018-04-14T23:24:32.101Z,5.28
2018-04-14T23:27:00.348Z,5.27
2018-04-14T23:29:29.354Z,5.30
2018-04-14T23:31:57.760Z,5.33
2018-04-14T23:34:25.995Z,5.34
2018-04-14T23:36:54.484Z,5.34
2018-04-14T23:39:22.727Z,5.28
2018-04-14T23:41:50.968Z,5.21
2018-04-14T23:44:19.987Z,5.16
2018-04-14T23:46:48.243Z,5.12
2018-04-14T23:49:17.337Z,5.05
2018-04-14T23:51:46.369Z,5.10
2018-04-14T23:54:14.727Z,4.91
2018-04-14T23:56:43.742Z,4.84
2018-04-14T23:59:11.982Z,4.80
